createdAt,value
2018-07-29T00:00:44.745Z,15.60
2018-07-29T00:01:50.999Z,15.52
2018-07-29T00:02:59.358Z,15.60
2018-07-29T00:04:07.147Z,15.45
2018-07-29T00:05:15.547Z,15.44
2018-07-29T00:06:23.636Z,15.32
2018-07-29T00:07:31.465Z,15.36
2018-07-29T00:08:39.395Z,15.35
2018-07-29T00:09:47.769Z,15.33
2018-07-29T00:10:55.963Z,15.32
2018-07-29T00:12:04.091Z,15.30
2018-07-29T00:13:11.665Z,15.25
2018-07-29T00:14:19.997Z,15.22
2018-07-29T00:15:29.498Z,15.29
2018-07-29T00:16:36.059Z,15.35
2018-07-29T00:17:45.821Z,15.23
2018-07-29T00:18:52.449Z,15.35
2018-07-29T00:20:00.411Z,15.36
2018-07-29T00:21:08.552Z,15.35
2018-07-29T00:22:16.780Z,15.19
2018-07-29T00:23:24.660Z,15.30
2018-07-29T00:24:34.334Z,15.37
2018-07-29T00:25:40.995Z,15.26
2018-07-29T00:26:48.871Z,15.27
2018-07-29T00:27:56.919Z,15.27
2018-07-29T00:29:05.008Z,15.26
2018-07-29T00:30:13.318Z,15.15
2018-07-29T00:31:21.270Z,15.18
2018-07-29T00:32:29.261Z,15.17
2018-07-29T00:33:37.483Z,15.26
2018-07-29T00:34:45.411Z,15.19
2018-07-29T00:35:53.418Z,15.26
2018-07-29T00:37:01.606Z,15.25
2018-07-29T00:38:09.727Z,15.15
2018-07-29T00:39:17.987Z,15.18
2018-07-29T00:40:26.300Z,15.23
2018-07-29T00:41:34.115Z,15.18
2018-07-29T00:42:42.194Z,15.22
2018-07-29T00:43:50.464Z,15.22
2018-07-29T00:44:58.519Z,15.23
2018-07-29T00:46:06.391Z,15.27
2018-07-29T00:47:14.622Z,15.36
2018-07-29T00:48:22.692Z,15.27
2018-07-29T00:49:30.901Z,15.23
2018-07-29T00:50:38.730Z,15.30
2018-07-29T00:51:46.720Z,15.29
2018-07-29T00:52:54.801Z,15.26
2018-07-29T00:54:03.184Z,15.17
2018-07-29T00:55:11.124Z,15.17
2018-07-29T00:56:19.429Z,15.17
2018-07-29T00:57:27.183Z,15.17
2018-07-29T00:58:35.129Z,15.14
2018-07-29T00:59:43.163Z,15.17
2018-07-29T01:00:51.247Z,15.15
2018-07-29T01:01:59.387Z,15.18
2018-07-29T01:03:07.688Z,15.07
2018-07-29T01:04:15.405Z,15.11
2018-07-29T01:05:23.698Z,15.11
2018-07-29T01:06:31.549Z,15.11
2018-07-29T01:07:39.690Z,15.11
2018-07-29T01:08:47.761Z,15.00
2018-07-29T01:09:56.259Z,15.05
2018-07-29T01:11:04.124Z,15.10
2018-07-29T01:12:12.220Z,15.02
2018-07-29T01:13:20.507Z,14.97
2018-07-29T01:14:28.368Z,14.94
2018-07-29T01:15:36.718Z,14.94
2018-07-29T01:16:44.514Z,14.92
2018-07-29T01:17:52.677Z,14.96
2018-07-29T01:19:00.628Z,14.94
2018-07-29T01:20:08.642Z,14.96
2018-07-29T01:21:16.690Z,14.97
2018-07-29T01:22:24.901Z,15.00
2018-07-29T01:23:32.707Z,15.00
2018-07-29T01:24:40.811Z,14.96
2018-07-29T01:25:52.628Z,14.97
2018-07-29T01:26:57.127Z,14.99
2018-07-29T01:28:05.209Z,15.15
2018-07-29T01:29:13.446Z,15.15
2018-07-29T01:30:21.864Z,15.11
2018-07-29T01:31:29.595Z,15.18
2018-07-29T01:32:38.930Z,15.12
2018-07-29T01:33:45.699Z,15.17
2018-07-29T01:34:53.792Z,15.17
2018-07-29T01:36:01.856Z,15.10
2018-07-29T01:37:09.948Z,15.11
2018-07-29T01:38:17.988Z,15.08
2018-07-29T01:39:26.026Z,15.11
2018-07-29T01:40:34.127Z,15.07
2018-07-29T01:41:42.181Z,15.07
2018-07-29T01:42:50.244Z,15.02
2018-07-29T01:43:58.340Z,14.97
2018-07-29T01:45:06.391Z,15.00
2018-07-29T01:46:14.478Z,14.97
2018-07-29T01:47:22.504Z,15.00
2018-07-29T01:48:30.570Z,14.94
2018-07-29T01:49:38.693Z,14.94
2018-07-29T01:50:46.750Z,14.96
2018-07-29T01:51:55.095Z,14.96
2018-07-29T01:53:02.870Z,14.87
2018-07-29T01:54:10.927Z,14.82
2018-07-29T01:55:19.079Z,14.86
2018-07-29T01:56:27.159Z,14.81
2018-07-29T01:57:35.122Z,14.81
2018-07-29T01:58:43.176Z,14.89
2018-07-29T01:59:51.265Z,14.89
2018-07-29T02:00:59.305Z,14.97
2018-07-29T02:02:07.409Z,14.96
2018-07-29T02:03:15.476Z,14.93
2018-07-29T02:04:23.522Z,14.89
2018-07-29T02:05:31.581Z,14.93
2018-07-29T02:06:39.652Z,14.92
2018-07-29T02:07:47.821Z,14.97
2018-07-29T02:08:55.809Z,14.92
2018-07-29T02:10:03.855Z,14.90
2018-07-29T02:11:12.228Z,14.87
2018-07-29T02:12:19.987Z,14.90
2018-07-29T02:13:28.044Z,14.92
2018-07-29T02:14:36.099Z,14.74
2018-07-29T02:15:44.178Z,14.81
2018-07-29T02:16:52.248Z,14.78
2018-07-29T02:18:00.323Z,14.77
2018-07-29T02:19:08.405Z,14.79
2018-07-29T02:20:16.427Z,14.81
2018-07-29T02:21:24.526Z,14.70
2018-07-29T02:22:32.876Z,14.87
2018-07-29T02:23:40.859Z,14.82
2018-07-29T02:24:48.894Z,14.78
2018-07-29T02:25:56.987Z,14.67
2018-07-29T02:27:05.455Z,14.70
2018-07-29T02:28:13.146Z,14.66
2018-07-29T02:29:21.259Z,14.59
2018-07-29T02:30:29.248Z,14.66
2018-07-29T02:31:37.324Z,14.51
2018-07-29T02:32:45.350Z,14.48
2018-07-29T02:33:54.822Z,14.55
2018-07-29T02:35:01.500Z,14.51
2018-07-29T02:36:09.585Z,14.70
2018-07-29T02:37:17.603Z,14.61
2018-07-29T02:38:25.706Z,14.52
2018-07-29T02:39:33.757Z,14.66
2018-07-29T02:40:41.816Z,14.66
2018-07-29T02:41:49.891Z,14.67
2018-07-29T02:42:57.979Z,14.62
2018-07-29T02:44:06.046Z,14.63
2018-07-29T02:45:14.165Z,14.67
2018-07-29T02:46:22.126Z,14.67
2018-07-29T02:47:30.226Z,14.70
2018-07-29T02:48:38.375Z,14.67
2018-07-29T02:49:46.675Z,14.62
2018-07-29T02:50:54.427Z,14.70
2018-07-29T02:52:02.523Z,14.67
2018-07-29T02:53:10.556Z,14.63
2018-07-29T02:54:18.666Z,14.55
2018-07-29T02:55:26.688Z,14.63
2018-07-29T02:56:34.763Z,14.53
2018-07-29T02:57:42.815Z,14.62
2018-07-29T02:58:50.880Z,14.53
2018-07-29T02:59:58.937Z,14.53
2018-07-29T03:01:07.004Z,14.53
2018-07-29T03:02:15.070Z,14.58
2018-07-29T03:03:23.144Z,14.53
2018-07-29T03:04:32.653Z,14.45
2018-07-29T03:05:39.262Z,14.40
2018-07-29T03:06:50.746Z,14.38
2018-07-29T03:07:55.373Z,14.37
2018-07-29T03:09:03.500Z,14.37
2018-07-29T03:10:11.611Z,14.36
2018-07-29T03:11:19.796Z,14.36
2018-07-29T03:12:27.855Z,14.37
2018-07-29T03:13:35.934Z,14.41
2018-07-29T03:14:43.992Z,14.44
2018-07-29T03:15:52.366Z,14.45
2018-07-29T03:17:00.344Z,14.37
2018-07-29T03:18:10.118Z,14.41
2018-07-29T03:19:16.943Z,14.41
2018-07-29T03:20:24.765Z,14.37
2018-07-29T03:21:32.879Z,14.48
2018-07-29T03:22:40.901Z,14.43
2018-07-29T03:23:48.959Z,14.38
2018-07-29T03:24:57.036Z,14.48
2018-07-29T03:26:05.068Z,14.45
2018-07-29T03:27:13.157Z,14.37
2018-07-29T03:28:21.180Z,14.44
2018-07-29T03:29:29.309Z,14.41
2018-07-29T03:30:37.539Z,14.41
2018-07-29T03:31:45.868Z,14.44
2018-07-29T03:32:53.658Z,14.44
2018-07-29T03:34:01.759Z,14.51
2018-07-29T03:35:09.845Z,14.45
2018-07-29T03:36:17.862Z,14.44
2018-07-29T03:37:25.921Z,14.45
2018-07-29T03:38:34.024Z,14.41
2018-07-29T03:39:42.071Z,14.53
2018-07-29T03:40:50.133Z,14.48
2018-07-29T03:41:58.199Z,14.48
2018-07-29T03:43:06.268Z,14.53
2018-07-29T03:44:15.400Z,14.52
2018-07-29T03:45:22.418Z,14.53
2018-07-29T03:46:30.461Z,14.53
2018-07-29T03:47:38.523Z,14.51
2018-07-29T03:48:46.641Z,14.55
2018-07-29T03:49:54.925Z,14.51
2018-07-29T03:51:02.726Z,14.45
2018-07-29T03:52:10.828Z,14.53
2018-07-29T03:53:18.864Z,14.55
2018-07-29T03:54:26.942Z,14.56
2018-07-29T03:55:34.974Z,14.52
2018-07-29T03:56:43.068Z,14.48
2018-07-29T03:57:51.129Z,14.45
2018-07-29T03:58:59.452Z,14.44
2018-07-29T04:00:07.357Z,14.43
2018-07-29T04:01:15.520Z,14.44
2018-07-29T04:02:25.295Z,14.44
2018-07-29T04:03:31.674Z,14.44
2018-07-29T04:04:43.128Z,14.49
2018-07-29T04:05:47.822Z,14.48
2018-07-29T04:06:59.369Z,14.51
2018-07-29T04:08:04.128Z,14.59
2018-07-29T04:09:12.416Z,14.51
2018-07-29T04:10:20.834Z,14.49
2018-07-29T04:11:28.616Z,14.55
2018-07-29T04:12:36.600Z,14.52
2018-07-29T04:13:44.701Z,14.53
2018-07-29T04:14:52.716Z,14.58
2018-07-29T04:16:00.829Z,14.49
2018-07-29T04:17:08.957Z,14.55
2018-07-29T04:18:16.936Z,14.52
2018-07-29T04:19:24.983Z,14.55
2018-07-29T04:20:33.064Z,14.56
2018-07-29T04:21:44.569Z,14.52
2018-07-29T04:22:49.187Z,14.52
2018-07-29T04:23:57.237Z,14.49
2018-07-29T04:25:05.314Z,14.56
2018-07-29T04:26:16.796Z,14.63
2018-07-29T04:27:21.459Z,14.66
2018-07-29T04:28:29.544Z,14.53
2018-07-29T04:29:37.926Z,14.49
2018-07-29T04:30:45.648Z,14.45
2018-07-29T04:31:53.709Z,14.45
2018-07-29T04:33:01.819Z,14.44
2018-07-29T04:34:09.835Z,14.48
2018-07-29T04:35:17.932Z,14.45
2018-07-29T04:36:25.963Z,14.43
2018-07-29T04:37:34.147Z,14.49
2018-07-29T04:38:42.109Z,14.45
2018-07-29T04:39:50.160Z,14.51
2018-07-29T04:40:58.534Z,14.44
2018-07-29T04:42:06.391Z,14.53
2018-07-29T04:43:14.398Z,14.55
2018-07-29T04:44:22.441Z,14.52
2018-07-29T04:45:33.916Z,14.52
2018-07-29T04:46:38.592Z,14.63
2018-07-29T04:47:50.028Z,14.63
2018-07-29T04:48:54.699Z,14.62
2018-07-29T04:50:02.805Z,14.67
2018-07-29T04:51:10.849Z,14.73
2018-07-29T04:52:18.916Z,14.81
2018-07-29T04:53:26.972Z,14.85
2018-07-29T04:54:35.029Z,14.81
2018-07-29T04:55:43.116Z,14.96
2018-07-29T04:56:51.166Z,14.99
2018-07-29T04:57:59.248Z,15.02
2018-07-29T04:59:07.575Z,14.99
2018-07-29T05:00:15.650Z,15.00
2018-07-29T05:01:23.515Z,15.11
2018-07-29T05:02:31.514Z,15.12
2018-07-29T05:03:39.566Z,15.18
2018-07-29T05:04:47.640Z,15.19
2018-07-29T05:05:55.909Z,15.29
2018-07-29T05:07:04.000Z,15.39
2018-07-29T05:08:12.347Z,15.39
2018-07-29T05:09:20.319Z,15.50
2018-07-29T05:10:28.376Z,15.52
2018-07-29T05:11:36.453Z,15.62
2018-07-29T05:12:44.520Z,15.75
2018-07-29T05:13:52.575Z,15.85
2018-07-29T05:15:00.689Z,16.08
2018-07-29T05:16:08.717Z,16.31
2018-07-29T05:17:19.713Z,16.41
2018-07-29T05:18:25.839Z,16.59
2018-07-29T05:19:32.937Z,16.58
2018-07-29T05:20:41.001Z,16.61
2018-07-29T05:21:49.078Z,16.68
2018-07-29T05:22:57.111Z,16.62
2018-07-29T05:24:05.219Z,16.73
2018-07-29T05:25:13.255Z,16.77
2018-07-29T05:26:21.619Z,16.83
2018-07-29T05:27:29.389Z,16.79
2018-07-29T05:28:37.463Z,16.80
2018-07-29T05:29:45.772Z,16.82
2018-07-29T05:30:53.594Z,16.89
2018-07-29T05:32:01.657Z,16.89
2018-07-29T05:33:09.833Z,16.91
2018-07-29T05:34:17.786Z,16.87
2018-07-29T05:35:26.069Z,16.92
2018-07-29T05:36:35.551Z,16.92
2018-07-29T05:37:42.219Z,16.97
2018-07-29T05:38:50.371Z,16.99
2018-07-29T05:39:58.336Z,16.98
2018-07-29T05:41:07.845Z,16.99
2018-07-29T05:42:14.463Z,16.99
2018-07-29T05:43:24.021Z,17.04
2018-07-29T05:44:30.613Z,17.17
2018-07-29T05:45:38.675Z,17.19
2018-07-29T05:46:49.858Z,17.16
2018-07-29T05:47:54.840Z,17.22
2018-07-29T05:49:03.903Z,17.28
2018-07-29T05:50:10.966Z,17.23
2018-07-29T05:51:21.685Z,17.31
2018-07-29T05:52:27.179Z,17.30
2018-07-29T05:53:38.595Z,17.39
2018-07-29T05:54:43.247Z,17.41
2018-07-29T05:55:51.339Z,17.41
2018-07-29T05:56:59.374Z,17.49
2018-07-29T05:58:08.482Z,17.52
2018-07-29T05:59:18.897Z,17.69
2018-07-29T06:00:23.709Z,17.68
2018-07-29T06:01:31.646Z,17.75
2018-07-29T06:02:39.755Z,17.87
2018-07-29T06:03:47.764Z,18.00
2018-07-29T06:04:56.134Z,17.94
2018-07-29T06:06:04.268Z,18.05
2018-07-29T06:07:12.026Z,18.03
2018-07-29T06:08:20.088Z,18.11
2018-07-29T06:09:28.414Z,18.03
2018-07-29T06:10:36.878Z,18.16
2018-07-29T06:11:45.247Z,18.09
2018-07-29T06:12:54.046Z,18.13
2018-07-29T06:14:05.587Z,18.09
2018-07-29T06:15:12.877Z,18.19
2018-07-29T06:16:20.973Z,18.23
2018-07-29T06:17:28.165Z,18.23
2018-07-29T06:18:38.765Z,18.26
2018-07-29T06:19:50.191Z,18.21
2018-07-29T06:21:00.217Z,18.33
2018-07-29T06:22:04.728Z,18.31
2018-07-29T06:23:13.504Z,18.37
2018-07-29T06:24:21.152Z,18.42
2018-07-29T06:25:28.918Z,18.42
2018-07-29T06:26:39.811Z,18.49
2018-07-29T06:27:46.029Z,18.57
2018-07-29T06:28:53.516Z,18.55
2018-07-29T06:30:01.277Z,18.67
2018-07-29T06:31:17.975Z,18.67
2018-07-29T06:32:17.778Z,18.66
2018-07-29T06:33:25.350Z,18.68
2018-07-29T06:34:35.094Z,18.74
2018-07-29T06:35:42.216Z,18.74
2018-07-29T06:36:49.811Z,18.81
2018-07-29T06:37:57.904Z,18.79
2018-07-29T06:39:05.941Z,18.85
2018-07-29T06:40:17.228Z,18.89
2018-07-29T06:41:22.100Z,18.94
2018-07-29T06:42:30.476Z,19.07
2018-07-29T06:43:38.193Z,19.08
2018-07-29T06:44:46.628Z,19.07
2018-07-29T06:45:56.105Z,19.17
2018-07-29T06:47:02.564Z,19.22
2018-07-29T06:48:10.777Z,19.24
2018-07-29T06:49:18.752Z,19.32
2018-07-29T06:50:28.135Z,19.35
2018-07-29T06:51:36.470Z,19.47
2018-07-29T06:52:42.920Z,19.56
2018-07-29T06:53:50.864Z,19.59
2018-07-29T06:55:02.037Z,19.59
2018-07-29T06:56:09.397Z,19.66
2018-07-29T06:57:17.706Z,19.63
2018-07-29T06:58:26.623Z,19.67
2018-07-29T06:59:35.004Z,19.67
2018-07-29T07:00:43.258Z,19.75
2018-07-29T07:01:50.162Z,19.77
2018-07-29T07:02:58.007Z,19.75
2018-07-29T07:04:06.091Z,19.82
2018-07-29T07:05:14.158Z,19.89
2018-07-29T07:06:22.229Z,19.93
2018-07-29T07:07:30.350Z,20.00
2018-07-29T07:08:39.995Z,20.12
2018-07-29T07:09:46.414Z,20.12
2018-07-29T07:10:54.519Z,20.17
2018-07-29T07:12:02.560Z,20.14
2018-07-29T07:13:10.634Z,20.22
2018-07-29T07:14:18.702Z,20.33
2018-07-29T07:15:26.798Z,20.49
2018-07-29T07:16:34.849Z,20.50
2018-07-29T07:17:42.916Z,20.52
2018-07-29T07:18:51.005Z,20.67
2018-07-29T07:19:59.090Z,20.90
2018-07-29T07:21:07.112Z,21.20
2018-07-29T07:22:15.186Z,21.48
2018-07-29T07:23:23.259Z,21.77
2018-07-29T07:24:31.347Z,22.01
2018-07-29T07:25:39.407Z,22.16
2018-07-29T07:26:47.503Z,22.28
2018-07-29T07:27:56.571Z,22.49
2018-07-29T07:29:04.622Z,22.80
2018-07-29T07:30:13.031Z,22.99
2018-07-29T07:31:21.094Z,23.39
2018-07-29T07:32:28.863Z,23.76
2018-07-29T07:33:36.888Z,24.32
2018-07-29T07:34:49.519Z,24.59
2018-07-29T07:35:54.050Z,24.93
2018-07-29T07:37:02.435Z,25.12
2018-07-29T07:38:10.196Z,25.62
2018-07-29T07:39:18.315Z,26.16
2018-07-29T07:40:26.315Z,26.68
2018-07-29T07:41:39.472Z,27.29
2018-07-29T07:42:47.544Z,27.78
2018-07-29T07:43:55.618Z,28.12
2018-07-29T07:45:03.699Z,28.47
2018-07-29T07:46:11.778Z,28.86
2018-07-29T07:47:20.644Z,29.28
2018-07-29T07:48:27.947Z,29.58
2018-07-29T07:49:36.593Z,29.90
2018-07-29T07:50:44.319Z,30.16
2018-07-29T07:51:52.730Z,30.36
2018-07-29T07:53:00.444Z,30.40
2018-07-29T07:54:08.345Z,30.73
2018-07-29T07:55:16.739Z,30.80
2018-07-29T07:56:25.226Z,30.74
2018-07-29T07:57:33.567Z,30.81
2018-07-29T07:58:41.041Z,30.96
2018-07-29T07:59:48.937Z,30.91
2018-07-29T08:00:57.665Z,30.83
2018-07-29T08:02:07.052Z,30.81
2018-07-29T08:03:13.205Z,30.89
2018-07-29T08:04:21.262Z,30.86
2018-07-29T08:05:29.356Z,30.76
2018-07-29T08:06:37.528Z,30.51
2018-07-29T08:07:45.738Z,30.16
2018-07-29T08:08:54.251Z,30.23
2018-07-29T08:10:02.339Z,30.10
2018-07-29T08:11:10.126Z,29.90
2018-07-29T08:12:18.080Z,29.71
2018-07-29T08:13:26.613Z,29.84
2018-07-29T08:14:34.683Z,30.03
2018-07-29T08:15:42.474Z,30.02
2018-07-29T08:16:50.882Z,29.95
2018-07-29T08:17:59.944Z,30.17
2018-07-29T08:19:07.004Z,30.46
2018-07-29T08:20:16.616Z,30.88
2018-07-29T08:21:23.533Z,30.99
2018-07-29T08:22:36.021Z,30.93
2018-07-29T08:23:39.493Z,30.78
2018-07-29T08:24:47.487Z,30.76
2018-07-29T08:25:55.587Z,30.55
2018-07-29T08:27:05.006Z,30.78
2018-07-29T08:28:11.418Z,30.80
2018-07-29T08:29:19.459Z,30.89
2018-07-29T08:30:27.523Z,31.23
2018-07-29T08:31:36.078Z,31.20
2018-07-29T08:32:43.740Z,31.00
2018-07-29T08:33:53.429Z,31.25
2018-07-29T08:34:59.996Z,31.28
2018-07-29T08:36:10.466Z,31.30
2018-07-29T08:37:16.358Z,31.23
2018-07-29T08:38:26.157Z,30.96
2018-07-29T08:39:32.182Z,31.08
2018-07-29T08:40:40.295Z,31.15
2018-07-29T08:41:48.351Z,31.02
2018-07-29T08:42:56.448Z,31.17
2018-07-29T08:44:04.512Z,31.08
2018-07-29T08:45:12.751Z,31.42
2018-07-29T08:46:21.699Z,31.30
2018-07-29T08:47:29.030Z,31.33
2018-07-29T08:48:36.831Z,31.29
2018-07-29T08:49:45.157Z,31.18
2018-07-29T08:50:53.222Z,31.26
2018-07-29T08:52:01.285Z,31.37
2018-07-29T08:53:09.390Z,31.39
2018-07-29T08:54:17.482Z,31.41
2018-07-29T08:55:25.543Z,31.48
2018-07-29T08:56:33.766Z,31.42
2018-07-29T08:57:41.790Z,31.30
2018-07-29T08:58:49.811Z,31.20
2018-07-29T08:59:57.985Z,31.45
2018-07-29T09:01:05.993Z,31.48
2018-07-29T09:02:14.037Z,31.52
2018-07-29T09:03:22.141Z,31.55
2018-07-29T09:04:30.208Z,31.44
2018-07-29T09:05:38.281Z,31.20
2018-07-29T09:06:46.357Z,31.00
2018-07-29T09:07:54.547Z,30.88
2018-07-29T09:09:02.547Z,30.76
2018-07-29T09:10:10.619Z,30.92
2018-07-29T09:11:18.692Z,30.81
2018-07-29T09:12:26.794Z,31.08
2018-07-29T09:13:34.851Z,31.10
2018-07-29T09:14:42.944Z,31.07
2018-07-29T09:15:51.068Z,30.81
2018-07-29T09:16:59.467Z,30.69
2018-07-29T09:18:07.247Z,30.24
2018-07-29T09:19:15.265Z,29.99
2018-07-29T09:20:23.390Z,29.69
2018-07-29T09:21:31.462Z,29.62
2018-07-29T09:22:39.609Z,29.39
2018-07-29T09:23:47.609Z,29.31
2018-07-29T09:24:55.696Z,29.13
2018-07-29T09:26:03.802Z,28.89
2018-07-29T09:27:11.948Z,28.83
2018-07-29T09:28:19.987Z,28.65
2018-07-29T09:29:28.285Z,28.60
2018-07-29T09:30:36.196Z,28.40
2018-07-29T09:31:44.210Z,28.19
2018-07-29T09:32:52.256Z,28.06
2018-07-29T09:34:00.389Z,27.94
2018-07-29T09:35:08.408Z,27.78
2018-07-29T09:36:16.522Z,27.60
2018-07-29T09:37:24.610Z,27.53
2018-07-29T09:38:33.039Z,27.43
2018-07-29T09:39:40.729Z,27.38
2018-07-29T09:40:48.819Z,27.34
2018-07-29T09:41:56.881Z,27.34
2018-07-29T09:43:05.075Z,27.33
2018-07-29T09:44:13.042Z,27.23
2018-07-29T09:45:21.226Z,27.05
2018-07-29T09:46:29.231Z,26.85
2018-07-29T09:47:37.585Z,26.86
2018-07-29T09:48:45.345Z,26.91
2018-07-29T09:49:53.420Z,26.93
2018-07-29T09:51:05.067Z,26.91
2018-07-29T09:52:13.662Z,26.98
2018-07-29T09:53:21.760Z,26.93
2018-07-29T09:54:29.779Z,27.05
2018-07-29T09:55:37.885Z,27.03
2018-07-29T09:56:45.917Z,27.19
2018-07-29T09:57:54.286Z,27.26
2018-07-29T09:59:02.072Z,27.30
2018-07-29T10:00:10.147Z,27.22
2018-07-29T10:01:18.220Z,27.15
2018-07-29T10:02:26.305Z,27.19
2018-07-29T10:03:34.361Z,27.03
2018-07-29T10:04:42.445Z,27.03
2018-07-29T10:05:50.534Z,27.03
2018-07-29T10:06:58.606Z,27.00
2018-07-29T10:08:09.081Z,27.04
2018-07-29T10:09:15.745Z,26.92
2018-07-29T10:10:23.815Z,26.91
2018-07-29T10:11:31.933Z,27.04
2018-07-29T10:12:39.977Z,27.01
2018-07-29T10:13:48.066Z,27.03
2018-07-29T10:14:56.332Z,27.13
2018-07-29T10:16:04.465Z,27.20
2018-07-29T10:17:12.472Z,27.11
2018-07-29T10:18:20.564Z,27.03
2018-07-29T10:19:28.646Z,27.19
2018-07-29T10:20:36.705Z,27.16
2018-07-29T10:21:47.055Z,27.07
2018-07-29T10:22:54.024Z,26.97
2018-07-29T10:24:02.123Z,26.88
2018-07-29T10:25:12.804Z,26.86
2018-07-29T10:26:18.262Z,27.03
2018-07-29T10:27:26.615Z,27.01
2018-07-29T10:28:34.475Z,27.03
2018-07-29T10:29:42.515Z,27.03
2018-07-29T10:30:50.561Z,27.00
2018-07-29T10:31:58.658Z,27.03
2018-07-29T10:33:06.727Z,27.03
2018-07-29T10:34:14.845Z,27.04
2018-07-29T10:35:23.130Z,27.18
2018-07-29T10:36:32.203Z,27.28
2018-07-29T10:37:39.061Z,27.30
2018-07-29T10:38:47.104Z,27.29
2018-07-29T10:39:55.157Z,27.28
2018-07-29T10:41:03.292Z,27.29
2018-07-29T10:42:14.724Z,27.26
2018-07-29T10:43:19.384Z,27.38
2018-07-29T10:44:27.482Z,27.41
2018-07-29T10:45:35.527Z,27.28
2018-07-29T10:46:43.666Z,27.37
2018-07-29T10:47:51.968Z,27.43
2018-07-29T10:48:59.979Z,27.47
2018-07-29T10:50:08.309Z,27.45
2018-07-29T10:51:16.145Z,27.45
2018-07-29T10:52:24.182Z,27.40
2018-07-29T10:53:32.301Z,27.45
2018-07-29T10:54:40.343Z,27.43
2018-07-29T10:55:48.419Z,27.53
2018-07-29T10:56:56.488Z,27.61
2018-07-29T10:58:04.947Z,27.64
2018-07-29T10:59:12.624Z,27.66
2018-07-29T11:00:20.735Z,27.66
2018-07-29T11:01:28.784Z,27.71
2018-07-29T11:02:36.874Z,27.64
2018-07-29T11:03:45.044Z,27.64
2018-07-29T11:04:53.030Z,27.53
2018-07-29T11:06:01.078Z,27.58
2018-07-29T11:07:09.576Z,27.60
2018-07-29T11:08:17.249Z,27.57
2018-07-29T11:09:25.325Z,27.57
2018-07-29T11:10:33.381Z,27.47
2018-07-29T11:11:41.469Z,27.52
2018-07-29T11:12:49.522Z,27.37
2018-07-29T11:13:57.612Z,27.45
2018-07-29T11:15:07.070Z,27.44
2018-07-29T11:16:13.745Z,27.57
2018-07-29T11:17:25.246Z,27.67
2018-07-29T11:18:29.927Z,27.81
2018-07-29T11:19:38.090Z,27.82
2018-07-29T11:20:46.008Z,27.97
2018-07-29T11:21:54.148Z,28.06
2018-07-29T11:23:02.409Z,28.13
2018-07-29T11:24:10.500Z,28.13
2018-07-29T11:25:18.636Z,28.16
2018-07-29T11:26:26.655Z,28.19
2018-07-29T11:27:34.968Z,28.18
2018-07-29T11:28:42.771Z,28.19
2018-07-29T11:29:50.844Z,28.16
2018-07-29T11:30:58.924Z,28.15
2018-07-29T11:32:08.422Z,28.15
2018-07-29T11:33:15.071Z,28.09
2018-07-29T11:34:23.135Z,28.03
2018-07-29T11:35:31.224Z,28.03
2018-07-29T11:36:41.890Z,28.01
2018-07-29T11:37:47.592Z,28.10
2018-07-29T11:38:55.649Z,28.10
2018-07-29T11:40:03.743Z,28.23
2018-07-29T11:41:11.814Z,28.23
2018-07-29T11:42:19.886Z,28.23
2018-07-29T11:43:27.965Z,28.16
2018-07-29T11:44:36.199Z,28.25
2018-07-29T11:45:44.524Z,28.20
2018-07-29T11:46:52.571Z,28.23
2018-07-29T11:48:00.676Z,28.25
2018-07-29T11:49:08.743Z,28.28
2018-07-29T11:50:17.848Z,28.31
2018-07-29T11:51:25.051Z,28.37
2018-07-29T11:52:33.245Z,28.43
2018-07-29T11:53:41.227Z,28.37
2018-07-29T11:54:49.291Z,28.41
2018-07-29T11:56:01.063Z,28.45
2018-07-29T11:57:05.453Z,28.50
2018-07-29T11:58:13.527Z,28.50
2018-07-29T11:59:21.921Z,28.52
2018-07-29T12:00:29.677Z,28.53
2018-07-29T12:01:37.749Z,28.53
2018-07-29T12:02:45.806Z,28.55
2018-07-29T12:03:53.987Z,28.45
2018-07-29T12:05:03.835Z,28.43
2018-07-29T12:06:10.553Z,28.45
2018-07-29T12:07:18.130Z,28.43
2018-07-29T12:08:26.529Z,28.43
2018-07-29T12:09:34.289Z,28.50
2018-07-29T12:10:42.344Z,28.47
2018-07-29T12:11:50.529Z,28.52
2018-07-29T12:12:58.494Z,28.53
2018-07-29T12:14:06.557Z,28.59
2018-07-29T12:15:14.629Z,28.55
2018-07-29T12:16:22.697Z,28.65
2018-07-29T12:17:30.783Z,28.60
2018-07-29T12:18:38.872Z,28.60
2018-07-29T12:19:46.942Z,28.67
2018-07-29T12:20:55.024Z,28.68
2018-07-29T12:22:03.308Z,28.64
2018-07-29T12:23:14.396Z,28.62
2018-07-29T12:24:19.471Z,28.56
2018-07-29T12:25:29.422Z,28.62
2018-07-29T12:26:35.579Z,28.62
2018-07-29T12:27:43.736Z,28.72
2018-07-29T12:28:51.726Z,28.72
2018-07-29T12:29:59.842Z,28.71
2018-07-29T12:31:07.878Z,28.70
2018-07-29T12:32:15.945Z,28.72
2018-07-29T12:33:24.356Z,28.67
2018-07-29T12:34:32.134Z,28.70
2018-07-29T12:35:40.180Z,28.70
2018-07-29T12:36:48.245Z,28.80
2018-07-29T12:37:56.371Z,28.82
2018-07-29T12:39:04.405Z,28.78
2018-07-29T12:40:13.997Z,28.70
2018-07-29T12:41:20.553Z,28.70
2018-07-29T12:42:29.366Z,28.72
2018-07-29T12:43:36.686Z,28.74
2018-07-29T12:44:46.379Z,28.77
2018-07-29T12:45:52.855Z,28.71
2018-07-29T12:47:00.950Z,28.82
2018-07-29T12:48:10.250Z,28.83
2018-07-29T12:49:17.287Z,28.87
2018-07-29T12:50:25.529Z,28.83
2018-07-29T12:51:33.634Z,28.87
2018-07-29T12:52:41.703Z,28.87
2018-07-29T12:53:49.783Z,28.80
2018-07-29T12:54:57.835Z,28.78
2018-07-29T12:56:05.930Z,28.72
2018-07-29T12:57:14.036Z,28.80
2018-07-29T12:58:22.077Z,28.78
2018-07-29T12:59:30.127Z,28.72
2018-07-29T13:00:38.261Z,28.59
2018-07-29T13:01:46.293Z,28.68
2018-07-29T13:02:54.373Z,28.59
2018-07-29T13:04:03.536Z,28.62
2018-07-29T13:05:10.526Z,28.64
2018-07-29T13:06:18.597Z,28.68
2018-07-29T13:07:26.778Z,28.67
2018-07-29T13:08:34.764Z,28.65
2018-07-29T13:09:42.825Z,28.60
2018-07-29T13:10:50.922Z,28.67
2018-07-29T13:11:59.114Z,28.64
2018-07-29T13:13:07.040Z,28.62
2018-07-29T13:14:15.105Z,28.72
2018-07-29T13:15:23.192Z,28.56
2018-07-29T13:16:31.357Z,28.59
2018-07-29T13:17:39.328Z,28.55
2018-07-29T13:18:47.401Z,28.45
2018-07-29T13:19:58.892Z,28.45
2018-07-29T13:21:03.546Z,28.40
2018-07-29T13:22:11.655Z,28.34
2018-07-29T13:23:19.712Z,28.49
2018-07-29T13:24:29.258Z,28.46
2018-07-29T13:25:36.198Z,28.45
2018-07-29T13:26:44.235Z,28.43
2018-07-29T13:27:52.282Z,28.43
2018-07-29T13:29:00.290Z,28.46
2018-07-29T13:30:08.354Z,28.46
2018-07-29T13:31:16.445Z,28.49
2018-07-29T13:32:24.505Z,28.41
2018-07-29T13:33:32.587Z,28.49
2018-07-29T13:34:40.637Z,28.49
2018-07-29T13:35:48.719Z,28.45
2018-07-29T13:36:56.774Z,28.46
2018-07-29T13:38:04.881Z,28.50
2018-07-29T13:39:14.357Z,28.52
2018-07-29T13:40:21.128Z,28.65
2018-07-29T13:41:32.522Z,28.62
2018-07-29T13:42:37.184Z,28.52
2018-07-29T13:43:48.708Z,28.38
2018-07-29T13:44:53.318Z,28.33
2018-07-29T13:46:01.511Z,28.27
2018-07-29T13:47:09.463Z,28.25
2018-07-29T13:48:17.560Z,28.33
2018-07-29T13:49:25.881Z,28.40
2018-07-29T13:50:33.931Z,28.45
2018-07-29T13:51:41.971Z,28.43
2018-07-29T13:52:50.087Z,28.41
2018-07-29T13:53:58.132Z,28.46
2018-07-29T13:55:06.178Z,28.49
2018-07-29T13:56:14.276Z,28.50
2018-07-29T13:57:22.346Z,28.64
2018-07-29T13:58:30.407Z,28.62
2018-07-29T13:59:38.480Z,28.59
2018-07-29T14:00:48.324Z,28.67
2018-07-29T14:01:54.842Z,28.65
2018-07-29T14:03:02.911Z,28.68
2018-07-29T14:04:10.998Z,28.75
2018-07-29T14:05:19.337Z,28.74
2018-07-29T14:06:27.426Z,28.71
2018-07-29T14:07:35.473Z,28.70
2018-07-29T14:08:43.310Z,28.71
2018-07-29T14:09:51.685Z,28.78
2018-07-29T14:10:59.816Z,28.71
2018-07-29T14:12:07.561Z,28.74
2018-07-29T14:13:15.570Z,28.71
2018-07-29T14:14:23.685Z,28.78
2018-07-29T14:15:31.742Z,28.71
2018-07-29T14:16:40.176Z,28.84
2018-07-29T14:17:47.867Z,28.74
2018-07-29T14:18:55.976Z,28.83
2018-07-29T14:20:04.158Z,28.87
2018-07-29T14:21:12.477Z,28.84
2018-07-29T14:22:20.173Z,28.87
2018-07-29T14:23:28.301Z,28.77
2018-07-29T14:24:36.346Z,28.72
2018-07-29T14:25:44.431Z,28.68
2018-07-29T14:26:52.678Z,28.78
2018-07-29T14:28:01.040Z,28.77
2018-07-29T14:29:12.207Z,28.80
2018-07-29T14:30:17.179Z,28.72
2018-07-29T14:31:25.931Z,28.64
2018-07-29T14:32:33.128Z,28.78
2018-07-29T14:33:41.132Z,28.75
2018-07-29T14:34:49.650Z,28.67
2018-07-29T14:35:57.315Z,28.68
2018-07-29T14:37:05.561Z,28.77